Time;durP1;ratioP1;P1;durP2;ratioP2;P2;SDS_P1;SDS_P2;PMS_P1;PMS_P2;Temp;Humidity;BMP_temperature;BMP_pressure;BME280_temperature;BME280_humidity;BME280_pressure;Samples;Min_cycle;Max_cycle;Signal;HPM_P1;HPM_P2
2022/06/09 00:01:58;;;;;;;23.00;10.88;;;14.30;99.90;;;;;;5114515;28;20043;-76
2022/06/09 00:04:32;;;;;;;22.00;10.13;;;14.30;99.90;;;;;;5121295;27;20038;-76
2022/06/09 00:07:08;;;;;;;22.67;10.10;;;14.30;99.90;;;;;;5153619;27;20088;-76
2022/06/09 00:09:44;;;;;;;21.80;10.02;;;14.20;99.90;;;;;;5135838;27;20448;-76
2022/06/09 00:12:10;;;;;;;17.35;9.43;;;14.20;99.90;;;;;;5138581;27;20442;-76
2022/06/09 00:14:37;;;;;;;19.92;10.68;;;14.20;99.90;;;;;;5136458;27;20066;-76
2022/06/09 00:17:03;;;;;;;18.02;9.40;;;14.20;99.90;;;;;;5154758;27;20050;-75
2022/06/09 00:19:29;;;;;;;21.15;10.43;;;14.20;99.90;;;;;;5157075;27;20099;-76
2022/06/09 00:21:55;;;;;;;19.73;9.75;;;14.10;99.90;;;;;;5157211;27;20038;-76
2022/06/09 00:24:21;;;;;;;17.73;10.00;;;14.10;99.90;;;;;;5150888;27;20039;-76
2022/06/09 00:26:47;;;;;;;22.00;10.38;;;14.00;99.90;;;;;;5117982;27;20386;-76
2022/06/09 00:29:13;;;;;;;17.75;9.48;;;14.10;99.90;;;;;;5117209;27;20130;-76
2022/06/09 00:31:39;;;;;;;22.48;10.77;;;14.00;99.90;;;;;;5116797;27;20035;-75
2022/06/09 00:34:04;;;;;;;17.33;9.77;;;14.00;99.90;;;;;;5117790;27;20134;-75
2022/06/09 00:36:30;;;;;;;19.00;10.02;;;13.90;99.90;;;;;;5117944;27;20046;-76
2022/06/09 00:38:57;;;;;;;18.27;10.50;;;13.90;99.90;;;;;;5135453;27;20562;-76
2022/06/09 00:41:27;;;;;;;19.98;11.68;;;13.90;99.90;;;;;;5118012;27;20395;-76
2022/06/09 00:43:53;;;;;;;19.98;10.45;;;13.80;99.90;;;;;;5135729;27;20407;-76
2022/06/09 00:46:29;;;;;;;16.08;9.60;;;13.70;99.90;;;;;;5134672;27;20047;-77
2022/06/09 00:49:04;;;;;;;19.25;10.35;;;13.70;99.90;;;;;;5136145;27;20035;-76
2022/06/09 00:51:40;;;;;;;17.90;10.55;;;13.70;99.90;;;;;;5117132;27;20042;-77
2022/06/09 00:54:17;;;;;;;19.48;9.45;;;13.60;99.90;;;;;;5120066;27;20049;-73
2022/06/09 00:57:03;;;;;;;19.40;9.48;;;13.50;99.90;;;;;;5156523;27;20042;-73
2022/06/09 00:59:31;;;;;;;18.17;10.13;;;13.50;99.90;;;;;;5155784;27;20109;-73
2022/06/09 01:02:02;;;;;;;16.98;9.05;;;13.50;99.90;;;;;;5137730;27;20039;-73
2022/06/09 01:04:30;;;;;;;16.63;8.80;;;13.40;99.90;;;;;;5156132;27;20039;-73
2022/06/09 01:07:11;;;;;;;15.65;9.32;;;13.30;99.90;;;;;;5155471;27;20413;-73
2022/06/09 01:09:37;;;;;;;23.10;9.80;;;13.30;99.90;;;;;;5135616;27;20043;-73
2022/06/09 01:12:35;;;;;;;17.52;8.27;;;13.30;99.90;;;;;;5155838;27;20121;-73
2022/06/09 01:15:09;;;;;;;21.35;10.40;;;13.20;99.90;;;;;;5136681;27;20053;-73
2022/06/09 01:18:16;;;;;;;18.90;9.35;;;13.20;99.90;;;;;;5137434;27;20051;-73
2022/06/09 01:20:52;;;;;;;15.80;8.77;;;13.10;99.90;;;;;;5154165;27;20039;-74
2022/06/09 01:23:37;;;;;;;14.52;8.35;;;13.00;99.90;;;;;;5155668;27;20042;-73
2022/06/09 01:26:29;;;;;;;16.75;9.45;;;13.00;99.90;;;;;;5135010;27;20042;-73
2022/06/09 01:29:15;;;;;;;15.45;8.82;;;13.00;99.90;;;;;;5154988;27;20493;-74
2022/06/09 01:32:20;;;;;;;17.83;8.80;;;12.90;99.90;;;;;;5137034;27;20087;-73
2022/06/09 01:35:00;;;;;;;14.30;8.35;;;12.90;99.90;;;;;;5135653;27;20054;-73
2022/06/09 01:37:30;;;;;;;17.17;7.60;;;12.80;99.90;;;;;;5155864;27;20047;-74
2022/06/09 01:40:03;;;;;;;41.25;11.05;;;12.80;99.90;;;;;;5145164;27;20044;-74
2022/06/09 01:42:35;;;;;;;13.57;7.25;;;12.70;99.90;;;;;;5115365;27;20092;-75
2022/06/09 01:45:04;;;;;;;33.08;9.45;;;12.70;99.90;;;;;;5116215;27;20539;-75
2022/06/09 01:47:37;;;;;;;30.27;7.93;;;12.70;99.90;;;;;;5134957;27;20043;-75
2022/06/09 01:50:06;;;;;;;49.92;7.60;;;12.60;99.90;;;;;;5115342;27;20108;-76
2022/06/09 01:52:33;;;;;;;47.83;7.00;;;12.60;99.90;;;;;;5116121;27;20043;-76
2022/06/09 01:55:02;;;;;;;40.03;7.25;;;12.50;99.90;;;;;;5135125;27;20035;-76
2022/06/09 01:57:33;;;;;;;58.65;7.38;;;12.50;99.90;;;;;;5116155;27;20053;-76
2022/06/09 02:00:12;;;;;;;36.13;7.90;;;12.50;99.90;;;;;;5116384;27;20043;-76
2022/06/09 02:02:47;;;;;;;58.70;7.57;;;12.50;99.90;;;;;;5115373;27;20046;-76
2022/06/09 02:05:26;;;;;;;39.25;6.85;;;12.50;99.90;;;;;;5133970;27;20042;-76
2022/06/09 02:07:57;;;;;;;30.02;5.72;;;12.40;99.90;;;;;;5116247;27;20108;-76
2022/06/09 02:10:37;;;;;;;24.90;6.60;;;12.30;99.90;;;;;;5147876;27;20413;-76
2022/06/09 02:13:23;;;;;;;15.38;7.07;;;12.30;99.90;;;;;;5152842;27;20085;-76
2022/06/09 02:15:52;;;;;;;11.90;6.97;;;12.30;99.90;;;;;;5136453;27;20045;-76
2022/06/09 02:18:21;;;;;;;18.83;7.72;;;12.30;99.90;;;;;;5135341;27;20061;-76
2022/06/09 02:21:04;;;;;;;32.03;9.02;;;12.30;99.90;;;;;;5153151;27;20082;-76
2022/06/09 02:23:29;;;;;;;17.83;7.47;;;12.40;99.90;;;;;;5135237;27;20043;-76
2022/06/09 02:25:55;;;;;;;;;;;12.20;99.90;;;;;;5155194;27;20039;-76
2022/06/09 02:28:21;;;;;;;11.15;7.60;;;12.20;99.90;;;;;;5135557;27;19958;-73
2022/06/09 02:30:47;;;;;;;11.10;7.50;;;12.10;99.90;;;;;;5135463;27;20046;-74
2022/06/09 02:33:12;;;;;;;13.27;9.32;;;12.10;99.90;;;;;;5135091;27;20042;-73
2022/06/09 02:35:39;;;;;;;13.75;8.63;;;12.20;99.90;;;;;;5152270;27;20031;-74
2022/06/09 02:38:05;;;;;;;13.68;8.45;;;12.20;99.90;;;;;;5134878;27;20050;-73
2022/06/09 02:40:31;;;;;;;;;;;12.20;99.90;;;;;;5154960;27;20069;-73
2022/06/09 02:43:00;;;;;;;11.65;7.43;;;12.20;99.90;;;;;;5135584;27;19919;-73
2022/06/09 02:45:27;;;;;;;10.88;7.35;;;12.20;99.90;;;;;;5134685;27;20070;-73
2022/06/09 02:47:53;;;;;;;13.10;8.35;;;12.30;99.90;;;;;;5135618;27;20065;-73
2022/06/09 02:50:19;;;;;;;13.63;8.60;;;12.30;99.90;;;;;;5139289;27;20054;-73
2022/06/09 02:52:45;;;;;;;12.68;9.05;;;12.40;99.90;;;;;;5132738;27;20070;-74
2022/06/09 02:55:12;;;;;;;14.98;8.25;;;12.40;99.90;;;;;;5114746;27;20081;-73
2022/06/09 02:57:37;;;;;;;12.35;8.77;;;12.40;99.90;;;;;;5133429;27;20444;-73
2022/06/09 03:00:09;;;;;;;12.85;8.52;;;12.60;99.90;;;;;;5113995;27;20047;-73
2022/06/09 03:02:35;;;;;;;13.55;9.18;;;12.60;99.90;;;;;;5132876;27;20088;-73
2022/06/09 03:05:01;;;;;;;13.13;9.43;;;12.60;99.90;;;;;;5115074;27;20047;-73
2022/06/09 03:07:27;;;;;;;12.88;9.88;;;12.70;99.90;;;;;;5114006;27;20042;-73
2022/06/09 03:09:53;;;;;;;14.95;10.82;;;12.70;99.90;;;;;;5114678;27;20039;-73
2022/06/09 03:12:20;;;;;;;14.15;10.48;;;12.80;99.90;;;;;;5114273;27;20054;-73
2022/06/09 03:14:45;;;;;;;15.95;11.07;;;12.90;99.90;;;;;;5114520;27;20478;-74
2022/06/09 03:17:11;;;;;;;13.40;10.60;;;12.90;99.90;;;;;;5114589;27;20034;-74
2022/06/09 03:19:38;;;;;;;15.23;10.10;;;13.00;99.90;;;;;;5115121;27;20043;-73
2022/06/09 03:22:04;;;;;;;13.38;10.75;;;13.00;99.90;;;;;;5114337;28;20081;-73
2022/06/09 03:24:30;;;;;;;15.27;11.60;;;13.00;99.90;;;;;;5114350;27;20043;-73
2022/06/09 03:26:57;;;;;;;17.92;11.70;;;13.10;99.90;;;;;;5114442;28;20347;-73
2022/06/09 03:29:23;;;;;;;17.40;11.23;;;13.00;99.90;;;;;;5132431;28;20513;-74
2022/06/09 03:31:49;;;;;;;14.82;11.02;;;13.20;99.90;;;;;;5133089;28;20070;-73
2022/06/09 03:34:15;;;;;;;15.77;11.85;;;13.10;99.90;;;;;;5132714;27;20497;-73
2022/06/09 03:36:43;;;;;;;14.95;11.10;;;13.10;99.90;;;;;;5114085;28;20045;-73
2022/06/09 03:39:09;;;;;;;17.83;12.02;;;14.10;99.90;;;;;;5132544;28;20062;-73
2022/06/09 03:41:34;;;;;;;15.18;12.07;;;13.10;99.90;;;;;;5113809;28;20043;-73
2022/06/09 03:44:00;;;;;;;14.50;12.18;;;13.20;99.90;;;;;;5116254;27;20038;-73
2022/06/09 03:46:25;;;;;;;18.92;12.77;;;13.20;99.90;;;;;;5118639;27;20051;-74
2022/06/09 03:48:52;;;;;;;15.90;12.32;;;13.20;99.90;;;;;;5136218;27;20134;-74
2022/06/09 03:51:17;;;;;;;16.67;12.85;;;13.30;99.90;;;;;;5118141;27;20043;-74
2022/06/09 03:53:43;;;;;;;15.73;12.23;;;13.30;99.90;;;;;;5118438;27;20127;-73
2022/06/09 03:56:20;;;;;;;16.20;11.88;;;13.50;99.90;;;;;;5117307;27;20091;-73
2022/06/09 03:58:46;;;;;;;14.18;10.82;;;13.30;99.90;;;;;;5137477;27;20043;-74
2022/06/09 04:01:13;;;;;;;13.32;10.02;;;13.40;99.90;;;;;;5136565;27;20088;-74
2022/06/09 04:03:42;;;;;;;12.05;9.48;;;13.50;99.90;;;;;;5135848;27;20058;-74
2022/06/09 04:06:14;;;;;;;11.52;9.43;;;13.50;99.90;;;;;;5117877;27;20039;-76
2022/06/09 04:08:39;;;;;;;14.90;10.98;;;13.50;99.90;;;;;;5135789;27;20082;-75
2022/06/09 04:11:05;;;;;;;16.77;10.82;;;13.50;99.90;;;;;;5117978;27;20375;-76
2022/06/09 04:13:31;;;;;;;14.48;10.82;;;13.60;99.90;;;;;;5117650;27;20046;-75
2022/06/09 04:15:56;;;;;;;13.82;11.05;;;13.60;99.90;;;;;;5117401;27;20035;-75
2022/06/09 04:18:22;;;;;;;12.90;10.98;;;13.50;99.90;;;;;;5118175;27;20455;-76
2022/06/09 04:20:48;;;;;;;13.57;11.35;;;13.60;99.90;;;;;;5118657;27;20046;-75
2022/06/09 04:23:13;;;;;;;13.68;10.10;;;13.70;99.90;;;;;;5117618;27;20035;-74
2022/06/09 04:25:39;;;;;;;11.18;8.52;;;13.60;99.90;;;;;;5117740;27;20474;-74
2022/06/09 04:28:05;;;;;;;11.77;9.38;;;13.60;99.90;;;;;;5117556;27;20039;-75
2022/06/09 04:30:31;;;;;;;12.82;9.40;;;13.60;99.90;;;;;;5150767;27;20050;-74
2022/06/09 04:32:57;;;;;;;12.15;9.35;;;13.60;99.90;;;;;;5156551;27;20045;-74
2022/06/09 04:35:24;;;;;;;12.57;9.93;;;13.60;99.90;;;;;;5137810;27;20047;-75
2022/06/09 04:37:59;;;;;;;12.43;10.48;;;13.70;99.90;;;;;;5153788;27;20057;-75
2022/06/09 04:40:26;;;;;;;14.07;10.83;;;13.80;99.90;;;;;;5138023;27;20141;-74
2022/06/09 04:42:52;;;;;;;13.02;10.63;;;13.80;99.90;;;;;;5138062;27;20102;-75
2022/06/09 04:45:19;;;;;;;16.20;11.43;;;13.80;99.90;;;;;;5136522;27;20134;-74
2022/06/09 04:47:45;;;;;;;14.07;11.70;;;13.80;99.90;;;;;;5135708;27;20042;-75
2022/06/09 04:50:12;;;;;;;15.23;11.52;;;13.90;99.90;;;;;;5129291;27;20039;-75
2022/06/09 04:52:37;;;;;;;15.20;11.98;;;13.90;99.90;;;;;;5119352;27;20053;-77
2022/06/09 04:55:04;;;;;;;13.90;10.73;;;14.00;99.90;;;;;;5126563;27;20046;-83
2022/06/09 04:57:30;;;;;;;14.13;10.88;;;13.90;99.90;;;;;;5155912;27;20043;-72
2022/06/09 04:59:58;;;;;;;14.27;10.57;;;13.90;99.90;;;;;;5138097;27;20066;-76
2022/06/09 05:02:24;;;;;;;15.13;11.00;;;14.00;99.90;;;;;;5130675;27;20114;-76
2022/06/09 05:04:49;;;;;;;12.48;9.82;;;14.00;99.90;;;;;;5145754;27;20127;-78
2022/06/09 05:07:18;;;;;;;13.43;10.63;;;14.10;99.90;;;;;;5136595;27;20549;-76
2022/06/09 05:09:44;;;;;;;12.40;9.63;;;14.70;99.90;;;;;;5120133;27;20137;-76
2022/06/09 05:12:10;;;;;;;14.32;10.07;;;14.30;99.90;;;;;;5122592;27;20403;-77
2022/06/09 05:14:36;;;;;;;13.38;10.50;;;14.20;99.90;;;;;;5155690;27;20031;-77
2022/06/09 05:17:01;;;;;;;15.23;10.85;;;14.30;99.90;;;;;;5137731;27;20042;-76
2022/06/09 05:19:27;;;;;;;15.57;11.00;;;14.30;99.90;;;;;;5136325;27;20046;-76
2022/06/09 05:21:53;;;;;;;14.05;10.40;;;14.30;99.90;;;;;;5136951;27;20119;-77
2022/06/09 05:24:18;;;;;;;13.32;9.88;;;14.40;99.90;;;;;;5125662;27;20039;-77
2022/06/09 05:26:44;;;;;;;14.52;10.38;;;14.40;99.90;;;;;;5133876;27;20412;-77
2022/06/09 05:29:13;;;;;;;13.85;9.50;;;14.50;99.90;;;;;;5133790;27;20753;-73
2022/06/09 05:31:39;;;;;;;11.95;9.25;;;15.60;99.90;;;;;;5122828;27;20062;-81
2022/06/09 05:34:05;;;;;;;12.25;8.55;;;14.60;99.90;;;;;;5118062;27;20038;-83
2022/06/09 05:36:30;;;;;;;10.85;8.15;;;14.60;99.90;;;;;;5148762;27;20027;-82
2022/06/09 05:47:08;;;;;;;10.85;7.75;;;14.90;99.90;;;;;;5150293;27;20047;-75
2022/06/09 05:49:34;;;;;;;9.65;6.57;;;14.90;99.90;;;;;;5144494;27;20053;-86
2022/06/09 05:51:59;;;;;;;9.30;6.63;;;14.90;99.90;;;;;;5118526;27;20099;-78
2022/06/09 05:54:25;;;;;;;11.30;6.50;;;14.80;99.90;;;;;;5134011;27;20442;-74
2022/06/09 05:56:51;;;;;;;8.35;5.95;;;15.10;99.90;;;;;;5136908;27;20440;-77
2022/06/09 05:59:17;;;;;;;9.00;6.40;;;14.70;99.90;;;;;;5135176;27;20041;-79
2022/06/09 06:01:43;;;;;;;8.85;6.20;;;14.70;99.90;;;;;;5132188;27;20123;-79
2022/06/09 06:04:09;;;;;;;8.95;5.70;;;14.70;99.90;;;;;;5134479;27;20053;-80
2022/06/09 06:06:35;;;;;;;6.50;5.05;;;14.70;99.90;;;;;;5145733;27;20031;-80
2022/06/09 06:09:07;;;;;;;10.00;5.15;;;14.70;99.90;;;;;;5115597;27;20062;-78
2022/06/09 06:11:41;;;;;;;9.00;4.38;;;14.70;99.90;;;;;;5155020;27;20127;-79
2022/06/09 06:14:08;;;;;;;7.30;4.03;;;14.90;99.90;;;;;;5154572;27;20070;-73
2022/06/09 06:16:34;;;;;;;9.02;4.15;;;14.80;99.90;;;;;;5127810;27;20039;-73
2022/06/09 06:19:00;;;;;;;9.88;4.35;;;14.80;99.90;;;;;;5153956;27;20150;-72
2022/06/09 06:21:26;;;;;;;7.03;3.67;;;14.90;99.90;;;;;;5133838;27;20038;-72
2022/06/09 06:23:53;;;;;;;7.20;3.92;;;14.90;99.90;;;;;;5124246;27;20047;-72
2022/06/09 06:26:19;;;;;;;6.82;3.50;;;14.90;99.90;;;;;;5145686;27;20568;-72
2022/06/09 06:28:45;;;;;;;6.70;3.33;;;14.90;99.90;;;;;;5142339;27;20047;-72
2022/06/09 06:31:11;;;;;;;6.82;3.53;;;14.90;99.90;;;;;;5140481;27;20042;-72
2022/06/09 06:33:37;;;;;;;8.68;2.90;;;15.00;99.90;;;;;;5145301;27;20043;-72
2022/06/09 06:36:03;;;;;;;6.60;2.95;;;15.00;99.90;;;;;;5123823;27;20397;-72
2022/06/09 06:38:29;;;;;;;6.82;3.03;;;15.00;99.90;;;;;;5128310;27;20047;-73
2022/06/09 06:40:57;;;;;;;6.43;2.83;;;15.00;99.90;;;;;;5133746;27;20042;-72
2022/06/09 06:43:23;;;;;;;6.43;2.47;;;15.00;99.90;;;;;;5114081;27;20050;-71
2022/06/09 06:45:49;;;;;;;6.32;2.47;;;15.10;99.90;;;;;;5136731;27;20139;-72
2022/06/09 06:48:15;;;;;;;6.20;2.30;;;15.10;99.90;;;;;;5133951;27;20118;-72
2022/06/09 06:50:43;;;;;;;7.30;2.38;;;15.20;99.90;;;;;;5132613;27;20035;-72
2022/06/09 06:53:12;;;;;;;4.70;2.10;;;15.30;99.90;;;;;;5132887;27;20080;-72
2022/06/09 06:55:38;;;;;;;7.20;2.22;;;15.30;99.90;;;;;;5130306;27;20054;-72
2022/06/09 06:58:03;;;;;;;4.68;1.98;;;15.40;99.90;;;;;;5131110;27;20043;-73
2022/06/09 07:00:29;;;;;;;5.50;2.10;;;15.40;99.90;;;;;;5151181;27;20048;-71
2022/06/09 07:02:55;;;;;;;6.35;2.10;;;15.50;99.90;;;;;;5141570;27;20461;-72
2022/06/09 07:05:21;;;;;;;4.25;2.03;;;15.50;99.90;;;;;;5132188;27;20099;-72
2022/06/09 07:07:48;;;;;;;5.30;2.30;;;15.60;99.90;;;;;;5137565;27;20084;-72
2022/06/09 07:10:13;;;;;;;6.18;2.05;;;15.60;99.90;;;;;;5114395;27;20053;-70
2022/06/09 07:12:40;;;;;;;6.63;2.05;;;15.60;99.90;;;;;;5113646;27;20519;-70
2022/06/09 07:15:07;;;;;;;5.90;2.10;;;16.00;99.90;;;;;;5114293;27;20070;-75
2022/06/09 07:17:33;;;;;;;6.93;1.80;;;15.90;99.90;;;;;;5139435;27;20047;-71
2022/06/09 07:19:59;;;;;;;9.73;2.00;;;16.20;99.90;;;;;;5141961;27;20038;-71
2022/06/09 07:22:24;;;;;;;6.85;2.22;;;16.70;99.90;;;;;;5119526;27;20394;-71
2022/06/09 07:24:55;;;;;;;9.60;2.00;;;17.40;99.90;;;;;;5142723;27;20042;-72
2022/06/09 07:27:21;;;;;;;5.18;1.75;;;18.00;99.90;;;;;;5124289;27;20109;-72
2022/06/09 07:29:46;;;;;;;6.70;2.10;;;18.70;99.90;;;;;;5125378;27;20133;-75
2022/06/09 07:32:12;;;;;;;7.65;1.90;;;19.10;99.90;;;;;;5123592;27;20026;-74
2022/06/09 07:34:38;;;;;;;8.30;2.03;;;19.60;99.90;;;;;;5125843;27;20577;-70
2022/06/09 07:37:05;;;;;;;6.57;2.08;;;19.90;99.90;;;;;;5126129;28;20038;-74
2022/06/09 07:39:30;;;;;;;4.78;1.52;;;20.40;99.90;;;;;;5130242;27;20406;-75
2022/06/09 07:41:56;;;;;;;6.90;1.80;;;20.80;99.90;;;;;;5134579;27;20053;-75
2022/06/09 07:44:22;;;;;;;7.68;1.92;;;20.90;99.90;;;;;;5131507;27;20043;-72
2022/06/09 07:46:47;;;;;;;10.27;1.85;;;21.20;99.90;;;;;;5125812;27;20050;-72
2022/06/09 07:49:13;;;;;;;5.65;1.70;;;21.20;99.90;;;;;;5121823;27;20049;-72
2022/06/09 07:51:39;;;;;;;5.30;1.85;;;21.50;99.90;;;;;;5131483;27;20043;-71
2022/06/09 07:54:06;;;;;;;6.03;1.60;;;21.70;99.90;;;;;;5130022;27;20050;-72
2022/06/09 07:56:32;;;;;;;5.70;1.55;;;22.00;99.90;;;;;;5113968;28;20547;-72
2022/06/09 07:59:02;;;;;;;5.18;1.80;;;22.20;99.90;;;;;;5143352;27;20066;-72
2022/06/09 08:01:28;;;;;;;6.85;1.85;;;22.50;99.90;;;;;;5111912;28;20050;-72
2022/06/09 08:03:55;;;;;;;5.30;1.50;;;22.60;99.90;;;;;;5113790;28;20406;-73
2022/06/09 08:06:21;;;;;;;6.47;1.73;;;22.60;99.90;;;;;;5113635;28;20058;-71
2022/06/09 08:08:48;;;;;;;6.28;1.98;;;22.70;99.90;;;;;;5120497;27;20043;-71
2022/06/09 08:11:14;;;;;;;7.55;1.85;;;22.70;99.90;;;;;;5115185;28;20043;-71
2022/06/09 08:13:39;;;;;;;5.57;1.83;;;22.90;99.90;;;;;;5114580;27;20055;-72
2022/06/09 08:16:06;;;;;;;8.40;1.75;;;22.90;99.90;;;;;;5152240;27;20389;-71
2022/06/09 08:18:34;;;;;;;6.90;1.80;;;22.80;99.90;;;;;;5115698;28;20046;-71
2022/06/09 08:21:00;;;;;;;4.90;1.60;;;23.00;99.90;;;;;;5139665;27;20043;-71
2022/06/09 08:23:27;;;;;;;5.22;1.50;;;23.00;99.90;;;;;;5123237;27;20398;-71
2022/06/09 08:25:56;;;;;;;4.50;1.30;;;23.40;99.90;;;;;;5116643;27;20043;-71
2022/06/09 08:28:22;;;;;;;6.05;2.10;;;23.60;99.90;;;;;;5149215;27;20049;-71
2022/06/09 08:30:51;;;;;;;4.68;1.40;;;23.80;99.90;;;;;;5135157;27;20031;-71
2022/06/09 08:33:18;;;;;;;6.43;1.52;;;23.90;99.90;;;;;;5117510;27;20061;-69
2022/06/09 08:35:45;;;;;;;6.85;1.85;;;24.20;99.90;;;;;;5129425;27;20039;-70
2022/06/09 08:38:11;;;;;;;4.93;1.73;;;24.20;99.90;;;;;;5127000;27;20043;-71
2022/06/09 08:41:13;;;;;;;4.70;1.45;;;24.20;99.90;;;;;;5145813;27;20423;-71
2022/06/09 08:44:09;;;;;;;4.00;1.65;;;24.30;99.90;;;;;;5126962;27;20045;-72
2022/06/09 08:46:48;;;;;;;8.82;1.55;;;24.30;99.90;;;;;;5124404;27;20047;-71
2022/06/09 08:49:31;;;;;;;6.55;1.50;;;24.30;99.90;;;;;;5144940;27;20042;-71
2022/06/09 08:52:11;;;;;;;4.95;1.45;;;24.70;99.70;;;;;;5124282;27;20488;-71
2022/06/09 08:54:37;;;;;;;6.45;2.67;;;25.20;99.90;;;;;;5126606;27;20039;-71
2022/06/09 08:57:11;;;;;;;7.63;2.20;;;24.10;99.90;;;;;;5116354;27;20398;-72
2022/06/09 08:59:38;;;;;;;6.05;1.73;;;24.10;99.90;;;;;;5122824;27;20142;-72
2022/06/09 09:02:25;;;;;;;4.63;1.60;;;24.10;99.90;;;;;;5128918;27;20351;-72
2022/06/09 09:05:06;;;;;;;7.07;1.75;;;24.10;99.90;;;;;;5121256;27;20126;-71
2022/06/09 09:07:33;;;;;;;6.65;1.83;;;24.30;99.90;;;;;;5137795;27;20054;-71
2022/06/09 09:10:15;;;;;;;4.25;1.48;;;24.50;99.70;;;;;;5140760;27;20055;-71
2022/06/09 09:13:05;;;;;;;7.10;1.80;;;24.70;99.90;;;;;;5144533;27;20063;-71
2022/06/09 09:15:38;;;;;;;5.82;1.52;;;25.10;98.90;;;;;;5146594;27;20067;-71
2022/06/09 09:18:19;;;;;;;5.47;1.80;;;24.90;99.20;;;;;;5126229;27;20512;-71
2022/06/09 09:21:06;;;;;;;4.82;2.05;;;24.30;99.90;;;;;;5131385;27;20050;-71
2022/06/09 09:24:01;;;;;;;4.50;1.90;;;24.40;99.40;;;;;;5147220;27;20091;-71
2022/06/09 09:26:49;;;;;;;5.70;2.03;;;24.70;99.80;;;;;;5125050;27;20031;-70
2022/06/09 09:29:35;;;;;;;5.93;1.50;;;24.50;98.80;;;;;;5126272;27;20542;-71
2022/06/09 09:32:22;;;;;;;5.55;1.80;;;24.40;99.60;;;;;;5144527;27;20051;-71
2022/06/09 09:34:49;;;;;;;7.47;1.67;;;23.80;99.90;;;;;;5140859;27;20039;-70
2022/06/09 09:37:15;;;;;;;6.22;2.03;;;23.90;99.90;;;;;;5114228;27;20509;-70
2022/06/09 09:39:46;;;;;;;5.72;1.52;;;24.00;99.70;;;;;;5114155;27;20042;-70
2022/06/09 09:42:24;;;;;;;5.60;1.63;;;23.80;99.90;;;;;;5114555;27;20042;-71
2022/06/09 09:45:30;;;;;;;5.13;1.80;;;23.30;99.90;;;;;;5136661;27;20043;-70
2022/06/09 09:48:03;;;;;;;5.25;1.60;;;23.50;99.90;;;;;;5127423;27;20047;-71
2022/06/09 09:50:50;;;;;;;6.05;1.73;;;23.90;99.90;;;;;;5147521;27;20053;-71
2022/06/09 09:53:19;;;;;;;7.45;1.70;;;23.90;99.90;;;;;;5135331;27;20091;-71
2022/06/09 09:56:01;;;;;;;8.07;2.08;;;23.50;99.90;;;;;;5146351;27;20390;-71
2022/06/09 09:58:41;;;;;;;4.43;1.75;;;22.70;99.90;;;;;;5146739;27;20042;-71
2022/06/09 10:01:16;;;;;;;3.97;1.40;;;22.60;99.90;;;;;;5122943;27;20378;-71
2022/06/09 10:09:50;;;;;;;4.05;1.45;;;23.40;99.50;;;;;;5121568;27;20065;-71
2022/06/09 10:12:23;;;;;;;6.00;1.55;;;23.20;99.30;;;;;;5140796;27;20031;-71
2022/06/09 10:15:04;;;;;;;6.47;1.48;;;22.70;99.90;;;;;;5127250;27;20474;-71
2022/06/09 10:17:37;;;;;;;4.13;1.50;;;22.40;99.90;;;;;;5128231;27;20042;-68
2022/06/09 10:20:27;;;;;;;5.72;1.75;;;22.70;99.90;;;;;;5145721;27;20043;-70
2022/06/09 10:23:09;;;;;;;7.57;1.73;;;22.80;99.90;;;;;;5123607;27;20074;-74
2022/06/09 10:25:55;;;;;;;8.43;1.52;;;22.60;99.90;;;;;;5125876;27;20110;-73
2022/06/09 10:28:46;;;;;;;6.38;1.65;;;22.60;99.90;;;;;;5126913;27;20042;-74
2022/06/09 10:31:33;;;;;;;5.90;1.40;;;23.10;99.90;;;;;;5132733;27;20046;-75
2022/06/09 10:34:15;;;;;;;5.30;1.33;;;22.80;99.90;;;;;;5116373;27;21290;-80
2022/06/09 10:36:53;;;;;;;5.80;1.50;;;23.00;99.50;;;;;;5132175;27;20066;-74
2022/06/09 10:39:34;;;;;;;5.38;1.40;;;22.90;99.90;;;;;;5133480;27;20049;-73
2022/06/09 10:42:24;;;;;;;4.47;1.15;;;22.60;99.90;;;;;;5114921;27;20039;-74
2022/06/09 10:44:59;;;;;;;5.00;1.40;;;22.30;99.90;;;;;;5079017;27;20057;-74
2022/06/09 10:56:53;;;;;;;6.88;1.90;;;21.70;99.90;;;;;;5115260;27;20276;-74
2022/06/09 10:59:18;;;;;;;4.07;1.42;;;21.70;99.90;;;;;;5115791;27;20057;-71
2022/06/09 11:01:44;;;;;;;4.68;1.45;;;21.10;99.90;;;;;;5136271;27;20740;-71
2022/06/09 11:04:16;;;;;;;6.70;1.55;;;21.30;99.90;;;;;;5128756;27;20051;-72
2022/06/09 11:06:59;;;;;;;6.00;1.70;;;21.40;99.90;;;;;;5153923;27;20053;-71
2022/06/09 11:09:43;;;;;;;5.85;2.00;;;21.50;99.90;;;;;;5135351;27;20049;-71
2022/06/09 11:12:23;;;;;;;5.82;1.70;;;21.60;99.90;;;;;;5152824;27;20042;-71
2022/06/09 11:15:15;;;;;;;5.63;1.77;;;21.70;99.90;;;;;;5154103;27;20045;-71
2022/06/09 11:17:58;;;;;;;6.70;1.95;;;22.00;99.90;;;;;;5133811;27;20576;-71
2022/06/09 11:21:03;;;;;;;4.78;1.80;;;22.50;99.90;;;;;;5135437;27;20038;-71
2022/06/09 11:24:07;;;;;;;5.90;1.98;;;22.80;99.90;;;;;;5102879;27;20383;-73
2022/06/09 11:26:52;;;;;;;7.43;1.83;;;23.10;99.90;;;;;;5110127;27;20058;-75
2022/06/09 11:29:35;;;;;;;9.15;2.10;;;22.90;99.90;;;;;;5153383;27;20047;-79
2022/06/09 11:32:19;;;;;;;7.85;2.50;;;23.10;99.90;;;;;;5133819;27;20043;-77
2022/06/09 11:34:54;;;;;;;7.65;2.22;;;23.10;99.90;;;;;;5154036;27;20090;-78
2022/06/09 11:37:29;;;;;;;5.38;1.80;;;23.20;99.90;;;;;;5134825;27;20400;-78
2022/06/09 11:40:16;;;;;;;7.47;2.13;;;23.20;99.90;;;;;;5152506;27;20050;-75
2022/06/09 11:43:02;;;;;;;6.45;2.00;;;23.20;99.80;;;;;;5134858;27;20055;-77
2022/06/09 11:45:40;;;;;;;8.25;2.25;;;23.40;99.60;;;;;;5109266;27;20054;-78
2022/06/09 11:48:15;;;;;;;8.23;2.28;;;23.10;99.60;;;;;;5152425;27;20101;-76
2022/06/09 11:50:44;;;;;;;6.80;2.20;;;22.90;99.90;;;;;;5145826;27;20046;-77
2022/06/09 11:53:25;;;;;;;6.25;2.25;;;22.90;99.90;;;;;;5113270;28;20035;-79
2022/06/09 11:56:11;;;;;;;4.65;1.90;;;22.50;99.90;;;;;;5118457;27;20046;-71
2022/06/09 11:58:37;;;;;;;5.15;1.75;;;22.20;99.90;;;;;;5116747;28;20096;-71
2022/06/09 12:01:27;;;;;;;6.18;1.75;;;21.60;99.90;;;;;;5114579;28;20386;-72
2022/06/09 12:04:27;;;;;;;7.90;1.73;;;21.20;99.90;;;;;;5114287;27;20139;-71
2022/06/09 12:07:03;;;;;;;5.20;1.60;;;21.10;99.90;;;;;;5122170;27;20034;-71
2022/06/09 12:09:47;;;;;;;6.25;1.73;;;21.50;99.90;;;;;;5135204;27;20125;-71
2022/06/09 12:12:40;;;;;;;5.18;1.88;;;21.70;99.90;;;;;;5143703;27;20091;-72
2022/06/09 12:15:11;;;;;;;5.63;2.05;;;21.90;99.90;;;;;;5127214;27;20045;-71
2022/06/09 12:17:51;;;;;;;6.00;2.10;;;22.20;99.90;;;;;;5145403;27;20398;-73
2022/06/09 12:20:46;;;;;;;5.65;1.60;;;22.30;99.90;;;;;;5117453;27;20035;-75
2022/06/09 12:23:30;;;;;;;7.03;1.70;;;21.80;99.90;;;;;;5114074;27;20050;-72
2022/06/09 12:26:10;;;;;;;9.95;2.20;;;21.90;99.90;;;;;;5118917;27;20092;-71
2022/06/09 12:28:55;;;;;;;11.38;2.22;;;21.90;99.90;;;;;;5119868;27;20053;-71
2022/06/09 12:31:37;;;;;;;7.13;2.20;;;22.10;99.90;;;;;;5125456;27;20398;-70
2022/06/09 12:34:09;;;;;;;8.45;1.92;;;22.20;99.90;;;;;;5117483;27;20130;-71
2022/06/09 12:36:38;;;;;;;6.32;2.10;;;22.40;99.90;;;;;;5116867;27;20126;-71
2022/06/09 12:39:15;;;;;;;5.93;1.88;;;22.40;99.90;;;;;;5117189;27;20058;-70
2022/06/09 12:41:43;;;;;;;6.90;1.80;;;22.10;99.40;;;;;;5118458;27;20058;-70
2022/06/09 12:44:15;;;;;;;7.80;1.70;;;22.10;99.90;;;;;;5116577;27;20055;-72
2022/06/09 12:46:42;;;;;;;6.70;2.25;;;22.10;99.90;;;;;;5121805;27;20074;-70
2022/06/09 12:49:18;;;;;;;5.05;1.90;;;22.00;99.90;;;;;;5124053;27;20073;-71
2022/06/09 12:51:44;;;;;;;10.32;2.10;;;22.00;99.90;;;;;;5116809;27;20043;-70
2022/06/09 12:54:28;;;;;;;6.15;2.22;;;21.80;99.90;;;;;;5124200;27;20129;-71
2022/06/09 12:56:59;;;;;;;4.90;2.17;;;21.80;99.90;;;;;;5123249;27;20047;-70
2022/06/09 12:59:38;;;;;;;4.40;1.67;;;21.80;99.90;;;;;;5151922;27;20057;-70
2022/06/09 13:02:09;;;;;;;6.00;2.15;;;21.50;99.90;;;;;;5146639;27;20401;-70
2022/06/09 13:04:41;;;;;;;6.75;2.00;;;21.40;99.90;;;;;;5151852;27;20115;-73
2022/06/09 13:07:22;;;;;;;4.95;1.98;;;21.60;99.90;;;;;;5137561;27;20135;-75
2022/06/09 13:10:05;;;;;;;5.65;1.50;;;21.80;99.90;;;;;;5137596;27;20054;-71
2022/06/09 13:15:40;;;;;;;6.25;2.08;;;21.70;99.90;;;;;;5137381;27;20047;-72
2022/06/09 13:18:12;;;;;;;6.30;1.88;;;21.60;99.90;;;;;;5134423;27;20406;-72
2022/06/09 13:20:40;;;;;;;6.13;2.03;;;21.70;99.90;;;;;;5116961;27;20035;-69
2022/06/09 13:23:07;;;;;;;7.05;2.17;;;21.70;99.90;;;;;;5134727;27;20039;-73
2022/06/09 13:25:33;;;;;;;5.35;1.90;;;21.60;99.90;;;;;;5117328;27;20140;-76
2022/06/09 13:27:59;;;;;;;5.20;1.88;;;21.70;99.90;;;;;;5145166;27;20035;-77
2022/06/09 13:30:51;;;;;;;5.55;2.00;;;22.00;99.90;;;;;;5144730;27;20039;-77
2022/06/09 13:33:32;;;;;;;7.45;2.30;;;21.80;99.90;;;;;;5134447;27;20106;-76